Time;durP1;ratioP1;P1;durP2;ratioP2;P2;SDS_P1;SDS_P2;PMS_P1;PMS_P2;Temp;Humidity;BMP_temperature;BMP_pressure;BME280_temperature;BME280_humidity;BME280_pressure;Samples;Min_cycle;Max_cycle;Signal;HPM_P1;HPM_P2
2023/06/25 00:01:04;;;;;;;137.88;130.88;;;16.40;99.90;;;;;;5028383;28;20468;-74
2023/06/25 00:03:30;;;;;;;180.35;170.98;;;16.30;99.90;;;;;;5033238;28;20493;-74
2023/06/25 00:05:55;;;;;;;162.23;154.02;;;16.30;99.90;;;;;;5046353;28;20138;-74
2023/06/25 00:08:21;;;;;;;245.18;232.95;;;16.30;99.90;;;;;;5030322;28;20045;-74
2023/06/25 00:10:47;;;;;;;170.23;162.13;;;16.30;99.90;;;;;;5037006;28;20047;-74
2023/06/25 00:13:12;;;;;;;159.00;150.77;;;16.20;99.90;;;;;;5021705;28;20057;-74
2023/06/25 00:15:38;;;;;;;142.57;135.68;;;16.30;99.90;;;;;;5046683;28;20093;-74
2023/06/25 00:18:04;;;;;;;113.07;107.88;;;16.20;99.90;;;;;;5042180;28;20397;-74
2023/06/25 00:20:30;;;;;;;180.02;170.25;;;16.20;99.90;;;;;;5045365;28;20045;-74
2023/06/25 00:22:56;;;;;;;169.77;161.43;;;16.20;99.90;;;;;;5038108;28;20041;-74
2023/06/25 00:25:26;;;;;;;253.48;239.63;;;16.10;99.90;;;;;;5018967;28;20549;-74
2023/06/25 00:27:52;;;;;;;183.98;174.50;;;16.10;99.90;;;;;;5044249;28;20785;-74
2023/06/25 00:30:18;;;;;;;172.40;164.05;;;16.10;99.90;;;;;;5058052;28;20041;-74
2023/06/25 00:32:44;;;;;;;255.90;242.18;;;16.10;99.90;;;;;;5050941;28;20044;-74
2023/06/25 00:35:11;;;;;;;266.88;252.98;;;16.10;99.90;;;;;;5040898;28;20469;-74
2023/06/25 00:37:38;;;;;;;478.30;447.92;;;16.00;99.90;;;;;;5023168;28;20049;-74
2023/06/25 00:40:05;;;;;;;348.67;330.92;;;16.00;99.90;;;;;;5049813;28;20044;-74
2023/06/25 00:42:41;;;;;;;299.60;285.23;;;16.10;99.90;;;;;;5025887;28;20045;-74
2023/06/25 00:45:09;;;;;;;440.48;415.50;;;16.10;99.90;;;;;;5030329;28;20044;-74
2023/06/25 00:47:35;;;;;;;461.02;435.33;;;16.00;99.90;;;;;;5045335;28;20048;-74
2023/06/25 00:50:00;;;;;;;323.05;307.27;;;16.00;99.90;;;;;;5038498;28;20102;-74
2023/06/25 00:52:26;;;;;;;335.58;318.77;;;16.00;99.90;;;;;;5037517;28;20119;-74
2023/06/25 00:54:52;;;;;;;467.52;441.63;;;16.00;99.90;;;;;;5033692;28;20386;-74
2023/06/25 00:57:17;;;;;;;542.63;510.95;;;16.00;99.90;;;;;;5044505;28;20512;-74
2023/06/25 00:59:44;;;;;;;356.27;338.48;;;16.00;99.90;;;;;;5031777;28;20068;-74
2023/06/25 01:02:20;;;;;;;400.67;380.15;;;16.00;99.90;;;;;;5042831;28;20045;-74
2023/06/25 01:04:58;;;;;;;373.77;354.33;;;16.00;99.90;;;;;;5040259;28;20115;-74
2023/06/25 01:07:25;;;;;;;536.78;504.55;;;16.00;99.90;;;;;;5029817;28;20056;-74
2023/06/25 01:09:51;;;;;;;589.58;554.17;;;15.90;99.90;;;;;;5044308;28;20044;-74
2023/06/25 01:12:17;;;;;;;390.50;369.90;;;15.90;99.90;;;;;;5045125;28;20104;-74
2023/06/25 01:14:42;;;;;;;296.38;281.67;;;15.90;99.90;;;;;;5033776;28;20478;-74
2023/06/25 01:17:09;;;;;;;268.65;255.40;;;15.90;99.90;;;;;;5045578;28;20048;-74
2023/06/25 01:19:35;;;;;;;234.48;223.32;;;15.80;99.90;;;;;;5045984;28;20045;-75
2023/06/25 01:22:03;;;;;;;235.20;224.07;;;15.80;99.90;;;;;;5040947;28;20044;-74
2023/06/25 01:24:30;;;;;;;267.55;254.65;;;15.80;99.90;;;;;;5037544;28;20120;-74
2023/06/25 01:26:59;;;;;;;441.17;416.98;;;15.70;99.90;;;;;;5043589;28;20485;-75
2023/06/25 01:29:26;;;;;;;543.67;512.42;;;15.70;99.90;;;;;;5038633;28;20476;-74
2023/06/25 01:31:53;;;;;;;473.95;447.52;;;15.70;99.90;;;;;;5045985;28;20412;-74
2023/06/25 01:34:22;;;;;;;369.45;350.00;;;15.70;99.90;;;;;;5041688;28;20071;-74
2023/06/25 01:36:51;;;;;;;466.77;441.38;;;15.70;99.90;;;;;;5043789;28;20041;-74
2023/06/25 01:39:20;;;;;;;436.30;412.70;;;15.70;99.90;;;;;;5044620;28;20045;-74
2023/06/25 01:41:46;;;;;;;333.38;316.25;;;15.70;99.90;;;;;;5029515;28;20095;-74
2023/06/25 01:44:30;;;;;;;364.40;345.15;;;15.70;99.90;;;;;;5044301;28;20497;-76
2023/06/25 01:46:56;;;;;;;410.77;388.65;;;15.60;99.90;;;;;;5032517;28;20048;-74
2023/06/25 01:49:23;;;;;;;349.00;331.00;;;15.60;99.90;;;;;;5018486;28;20124;-74
2023/06/25 01:51:49;;;;;;;362.05;342.50;;;15.60;99.90;;;;;;5059456;28;20056;-74
2023/06/25 01:54:15;;;;;;;375.60;354.85;;;15.60;99.90;;;;;;5034209;28;20037;-74
2023/06/25 01:56:42;;;;;;;295.25;280.10;;;15.60;99.90;;;;;;5036005;28;20053;-74
2023/06/25 01:59:08;;;;;;;325.10;308.13;;;15.60;99.90;;;;;;5037103;28;20436;-74
2023/06/25 02:01:34;;;;;;;250.57;237.93;;;15.60;99.90;;;;;;5028071;28;20044;-76
2023/06/25 02:04:00;;;;;;;259.73;246.55;;;15.60;99.90;;;;;;5043833;28;20421;-74
2023/06/25 02:06:25;;;;;;;330.40;312.65;;;15.60;99.90;;;;;;5054160;28;20059;-74
2023/06/25 02:08:51;;;;;;;286.98;271.77;;;15.60;99.90;;;;;;5034539;28;20045;-74
2023/06/25 02:11:17;;;;;;;337.60;319.55;;;15.60;99.90;;;;;;5043308;28;20134;-74
2023/06/25 02:13:43;;;;;;;334.58;316.65;;;15.60;99.90;;;;;;5037226;28;20041;-74
2023/06/25 02:16:08;;;;;;;320.73;303.92;;;15.70;99.90;;;;;;5024114;28;20166;-74
2023/06/25 02:18:35;;;;;;;292.50;277.10;;;15.70;99.90;;;;;;5029162;28;20056;-74
2023/06/25 02:21:01;;;;;;;325.52;308.58;;;15.60;99.90;;;;;;5045775;28;20110;-74
2023/06/25 02:23:26;;;;;;;331.35;313.45;;;15.60;99.90;;;;;;5034259;28;20045;-74
2023/06/25 02:25:52;;;;;;;273.95;259.88;;;15.60;99.90;;;;;;5048529;28;20064;-74
2023/06/25 02:28:18;;;;;;;240.80;228.27;;;15.60;99.90;;;;;;5033878;28;20140;-74
2023/06/25 02:30:43;;;;;;;222.55;210.98;;;15.60;99.90;;;;;;5045047;28;20091;-74
2023/06/25 02:33:10;;;;;;;263.60;249.85;;;15.60;99.90;;;;;;5048300;28;20045;-74
2023/06/25 02:35:36;;;;;;;248.57;235.38;;;15.60;99.90;;;;;;5024571;28;20053;-74
2023/06/25 02:38:02;;;;;;;231.20;218.85;;;15.60;99.90;;;;;;5054868;28;20394;-74
2023/06/25 02:40:28;;;;;;;294.92;279.25;;;15.50;99.90;;;;;;5031243;28;20048;-74
2023/06/25 02:42:55;;;;;;;264.73;250.85;;;15.50;99.90;;;;;;5062084;28;20076;-74
2023/06/25 02:45:20;;;;;;;295.48;279.02;;;15.50;99.90;;;;;;5043611;28;20044;-74
2023/06/25 02:47:46;;;;;;;299.88;283.10;;;15.50;99.90;;;;;;5031350;28;20051;-74
2023/06/25 02:50:12;;;;;;;241.38;228.38;;;15.50;99.90;;;;;;5054867;28;20049;-74
2023/06/25 02:52:38;;;;;;;239.82;226.93;;;15.60;99.90;;;;;;5048371;28;20047;-74
2023/06/25 02:55:04;;;;;;;213.20;201.73;;;15.60;99.90;;;;;;5048438;28;20103;-74
2023/06/25 02:57:30;;;;;;;196.85;185.93;;;15.50;99.90;;;;;;5036900;28;20107;-74
2023/06/25 02:59:59;;;;;;;236.73;224.02;;;15.50;99.90;;;;;;5047269;28;20041;-74
2023/06/25 03:02:25;;;;;;;269.02;254.13;;;15.50;99.90;;;;;;5042561;28;20044;-74
2023/06/25 03:04:51;;;;;;;257.75;243.40;;;15.50;99.90;;;;;;5030291;28;20456;-74
2023/06/25 03:07:17;;;;;;;237.55;224.45;;;15.60;99.90;;;;;;5047412;28;20056;-74
2023/06/25 03:09:43;;;;;;;261.77;247.32;;;15.60;99.90;;;;;;5030858;28;20033;-74
2023/06/25 03:12:09;;;;;;;184.18;174.15;;;15.60;99.90;;;;;;5046291;28;20041;-74
2023/06/25 03:14:35;;;;;;;190.73;179.80;;;15.60;99.90;;;;;;5047866;28;20041;-74
2023/06/25 03:17:02;;;;;;;274.70;259.65;;;15.60;99.90;;;;;;5040917;28;20137;-74
2023/06/25 03:19:28;;;;;;;214.65;203.00;;;15.60;99.90;;;;;;5019219;28;20048;-74
2023/06/25 03:21:53;;;;;;;210.60;199.32;;;15.60;99.90;;;;;;5021668;28;20121;-74
2023/06/25 03:24:19;;;;;;;212.77;201.30;;;15.60;99.90;;;;;;5031239;28;20041;-74
2023/06/25 03:26:45;;;;;;;210.07;198.68;;;15.60;99.90;;;;;;5046375;28;20222;-74
2023/06/25 03:29:10;;;;;;;210.93;199.40;;;15.60;99.90;;;;;;5028928;28;20052;-74
2023/06/25 03:31:36;;;;;;;179.15;169.20;;;15.60;99.90;;;;;;5042972;28;20052;-74
2023/06/25 03:34:02;;;;;;;177.20;167.43;;;15.60;99.90;;;;;;5030572;28;20052;-74
2023/06/25 03:36:27;;;;;;;218.27;206.57;;;15.60;99.90;;;;;;5028297;28;20052;-74
2023/06/25 03:38:53;;;;;;;168.65;159.38;;;15.60;99.90;;;;;;5026775;28;20182;-74
2023/06/25 03:41:19;;;;;;;202.10;191.18;;;15.60;99.90;;;;;;5046060;28;20056;-75
2023/06/25 03:43:44;;;;;;;187.73;177.77;;;15.70;99.90;;;;;;5047171;28;20072;-75
2023/06/25 03:46:10;;;;;;;174.25;164.80;;;15.70;99.90;;;;;;5045748;28;20072;-75
2023/06/25 03:48:37;;;;;;;184.73;175.10;;;15.70;99.90;;;;;;5046780;28;20048;-74
2023/06/25 03:51:02;;;;;;;187.75;177.55;;;15.70;99.90;;;;;;5046287;28;20045;-74
2023/06/25 03:53:29;;;;;;;172.52;163.38;;;15.80;99.90;;;;;;5033957;28;20543;-74
2023/06/25 03:55:55;;;;;;;187.20;177.50;;;15.80;99.90;;;;;;5021213;28;20045;-74
2023/06/25 03:58:20;;;;;;;181.15;171.75;;;15.90;99.90;;;;;;5025559;28;20044;-77
2023/06/25 04:00:46;;;;;;;179.32;170.07;;;15.90;99.90;;;;;;5030097;28;20044;-75
2023/06/25 04:03:12;;;;;;;182.57;173.23;;;15.90;99.90;;;;;;5045317;28;20406;-74
2023/06/25 04:05:37;;;;;;;186.38;176.50;;;16.00;99.90;;;;;;5040501;28;20472;-74
2023/06/25 04:08:03;;;;;;;173.27;164.02;;;16.00;99.90;;;;;;5041882;28;20037;-74
2023/06/25 04:10:29;;;;;;;170.27;161.57;;;16.10;99.90;;;;;;5045122;28;20045;-75
2023/06/25 04:12:55;;;;;;;165.63;156.73;;;16.20;99.90;;;;;;5069891;28;20040;-74
2023/06/25 04:15:20;;;;;;;176.07;166.82;;;16.20;99.90;;;;;;5046550;28;20044;-74
2023/06/25 04:17:49;;;;;;;171.85;162.75;;;16.30;99.90;;;;;;5043496;28;20052;-75
2023/06/25 04:20:15;;;;;;;155.60;147.35;;;16.30;99.90;;;;;;5043672;28;20566;-75
2023/06/25 04:22:40;;;;;;;167.27;158.38;;;16.40;99.90;;;;;;5047232;28;20086;-75
2023/06/25 04:25:06;;;;;;;164.90;156.00;;;16.40;99.90;;;;;;5045960;28;20548;-74
2023/06/25 04:27:32;;;;;;;156.80;147.73;;;16.50;99.90;;;;;;5044029;28;20052;-75
2023/06/25 04:29:58;;;;;;;177.90;168.10;;;16.60;99.90;;;;;;5040213;28;20045;-74
2023/06/25 04:32:24;;;;;;;179.23;169.45;;;16.60;99.90;;;;;;5027493;28;20053;-74
2023/06/25 04:34:49;;;;;;;189.90;179.50;;;16.70;99.90;;;;;;5027845;28;20052;-75
2023/06/25 04:37:15;;;;;;;168.15;158.77;;;16.80;99.90;;;;;;5023250;28;20072;-74
2023/06/25 04:39:41;;;;;;;217.43;206.05;;;16.90;99.90;;;;;;5046767;28;20041;-74
2023/06/25 04:42:07;;;;;;;162.88;154.00;;;17.10;99.90;;;;;;5042857;28;20038;-75
2023/06/25 04:44:32;;;;;;;257.10;243.13;;;17.10;99.90;;;;;;5059256;28;20045;-74
2023/06/25 04:46:58;;;;;;;283.50;269.08;;;17.20;99.90;;;;;;5041562;28;20049;-74
2023/06/25 04:49:24;;;;;;;264.90;251.20;;;17.30;99.90;;;;;;5036565;28;20140;-75
2023/06/25 04:51:49;;;;;;;289.80;275.25;;;17.30;99.90;;;;;;5039762;28;20036;-75
2023/06/25 04:54:15;;;;;;;288.02;273.42;;;17.40;99.90;;;;;;5033010;28;20045;-74
2023/06/25 04:56:41;;;;;;;293.33;278.52;;;17.40;99.90;;;;;;5024373;28;20060;-74
2023/06/25 04:59:06;;;;;;;370.25;351.33;;;17.50;99.90;;;;;;5030082;28;20038;-74
2023/06/25 05:01:32;;;;;;;361.77;343.50;;;17.60;99.90;;;;;;5043852;28;20481;-74
2023/06/25 05:03:58;;;;;;;306.98;291.52;;;17.70;99.90;;;;;;5022849;28;20095;-75
2023/06/25 05:06:24;;;;;;;344.90;327.60;;;17.80;99.90;;;;;;5068682;28;20053;-74
2023/06/25 05:08:50;;;;;;;334.02;317.10;;;17.90;99.90;;;;;;5046295;28;20101;-74
2023/06/25 05:11:16;;;;;;;344.50;326.63;;;18.00;99.90;;;;;;5044083;28;20045;-75
2023/06/25 05:13:41;;;;;;;351.17;333.60;;;18.20;99.90;;;;;;5029862;28;20629;-74
2023/06/25 05:16:07;;;;;;;345.83;328.85;;;18.30;99.90;;;;;;5029549;28;20398;-74
2023/06/25 05:18:33;;;;;;;269.77;256.55;;;18.40;99.90;;;;;;5044496;28;20520;-74
2023/06/25 05:20:59;;;;;;;307.67;292.75;;;18.50;99.90;;;;;;5035440;28;20090;-75
2023/06/25 05:23:25;;;;;;;291.92;277.92;;;18.70;99.90;;;;;;5044933;28;20400;-75
2023/06/25 05:25:51;;;;;;;250.75;238.93;;;18.80;99.90;;;;;;5046238;28;20051;-75
2023/06/25 05:28:17;;;;;;;255.25;243.15;;;18.90;99.90;;;;;;5033778;28;20048;-74
2023/06/25 05:30:43;;;;;;;191.85;182.82;;;19.00;99.90;;;;;;5035682;28;20492;-75
2023/06/25 05:33:08;;;;;;;176.93;168.52;;;19.10;99.90;;;;;;5043083;28;20469;-75
2023/06/25 05:35:34;;;;;;;145.23;138.25;;;19.20;99.90;;;;;;5034386;28;20573;-75
2023/06/25 05:38:00;;;;;;;143.73;136.73;;;19.30;99.90;;;;;;5044800;28;20041;-75
2023/06/25 05:40:27;;;;;;;149.73;142.52;;;19.50;99.90;;;;;;5026126;28;20485;-76
2023/06/25 05:42:54;;;;;;;115.65;110.00;;;19.50;99.90;;;;;;5044275;28;20064;-76
2023/06/25 05:45:20;;;;;;;151.85;144.60;;;19.60;99.90;;;;;;5045264;28;20519;-76
2023/06/25 05:47:46;;;;;;;188.90;180.23;;;19.70;99.90;;;;;;5041474;28;20049;-76
2023/06/25 05:50:12;;;;;;;199.88;190.57;;;19.80;99.90;;;;;;5039723;28;20048;-76
2023/06/25 05:52:38;;;;;;;169.45;161.50;;;19.90;99.90;;;;;;5027808;28;20045;-75
2023/06/25 05:55:04;;;;;;;180.43;172.18;;;20.10;99.90;;;;;;5029375;28;20045;-76
2023/06/25 05:57:29;;;;;;;194.80;185.45;;;20.20;99.90;;;;;;5042238;28;20048;-75
2023/06/25 05:59:55;;;;;;;177.38;169.05;;;20.40;99.90;;;;;;5033290;28;20029;-75
2023/06/25 06:02:21;;;;;;;192.77;183.88;;;20.70;99.90;;;;;;5038834;28;20626;-77
2023/06/25 06:04:46;;;;;;;218.10;208.07;;;20.90;99.90;;;;;;5042716;28;20056;-77
2023/06/25 06:07:12;;;;;;;295.80;282.13;;;20.90;99.90;;;;;;5035385;28;20410;-76
2023/06/25 06:09:38;;;;;;;324.55;309.20;;;21.00;99.90;;;;;;5049070;28;20040;-77
2023/06/25 06:12:04;;;;;;;358.70;341.80;;;21.30;99.90;;;;;;5032583;28;20591;-77
2023/06/25 06:14:34;;;;;;;290.85;277.45;;;21.40;99.90;;;;;;5049003;28;20045;-76
2023/06/25 06:16:59;;;;;;;404.83;384.77;;;21.50;99.90;;;;;;5030534;28;20052;-77
2023/06/25 06:19:25;;;;;;;464.73;440.75;;;21.60;99.90;;;;;;5033780;28;20412;-77
2023/06/25 06:21:51;;;;;;;409.20;388.38;;;21.80;99.90;;;;;;5038682;28;20043;-77
2023/06/25 06:24:16;;;;;;;472.00;447.50;;;21.90;99.90;;;;;;5045338;28;20045;-79
2023/06/25 06:26:42;;;;;;;400.08;380.10;;;22.20;99.90;;;;;;5026354;28;20091;-78
2023/06/25 06:29:08;;;;;;;392.40;372.83;;;22.80;99.90;;;;;;5049312;28;20086;-77
2023/06/25 06:31:33;;;;;;;358.58;341.88;;;23.60;99.90;;;;;;5048771;28;20164;-76
2023/06/25 06:33:59;;;;;;;311.75;297.27;;;24.70;99.90;;;;;;5048915;28;20489;-77
2023/06/25 06:36:25;;;;;;;291.20;277.83;;;25.60;99.90;;;;;;5047173;28;20047;-77
2023/06/25 06:38:50;;;;;;;319.45;304.33;;;26.50;99.90;;;;;;5048027;28;20045;-77
2023/06/25 06:41:16;;;;;;;249.73;238.65;;;27.10;99.90;;;;;;5031982;28;20033;-78
2023/06/25 06:43:41;;;;;;;191.70;183.02;;;27.80;99.90;;;;;;5047680;28;20044;-77
2023/06/25 06:46:07;;;;;;;66.90;63.53;;;28.10;99.90;;;;;;5039616;28;20361;-79
2023/06/25 06:48:33;;;;;;;124.38;118.43;;;28.40;99.90;;;;;;5046054;28;20063;-79
2023/06/25 06:50:59;;;;;;;93.85;89.32;;;28.80;99.90;;;;;;5036681;28;20032;-77
2023/06/25 06:53:25;;;;;;;57.10;54.15;;;29.40;99.90;;;;;;5048432;28;20049;-78
2023/06/25 06:55:52;;;;;;;61.83;58.55;;;29.70;99.90;;;;;;5029645;28;20405;-78
2023/06/25 06:58:18;;;;;;;127.22;120.95;;;30.00;99.90;;;;;;5036527;28;20071;-78
2023/06/25 07:00:43;;;;;;;294.00;279.90;;;30.20;99.90;;;;;;5038848;28;20057;-78
2023/06/25 07:03:09;;;;;;;327.73;311.33;;;30.30;97.90;;;;;;5047960;28;20107;-77
2023/06/25 07:05:36;;;;;;;263.73;250.95;;;30.30;96.90;;;;;;5046718;28;20049;-77
2023/06/25 07:08:02;;;;;;;312.77;297.27;;;30.40;96.90;;;;;;5062593;28;20057;-77
2023/06/25 07:10:27;;;;;;;283.77;270.20;;;30.60;96.50;;;;;;5043245;28;20049;-77
2023/06/25 07:12:53;;;;;;;178.40;170.20;;;30.90;95.50;;;;;;5027652;28;20056;-77
2023/06/25 07:15:19;;;;;;;230.88;220.07;;;31.00;93.40;;;;;;5029073;28;20045;-79
2023/06/25 07:17:44;;;;;;;81.10;77.20;;;31.10;93.10;;;;;;5044692;28;20509;-78
2023/06/25 07:20:11;;;;;;;69.20;65.47;;;31.40;91.70;;;;;;5030281;28;20408;-77
2023/06/25 07:22:39;;;;;;;52.70;49.75;;;31.60;91.90;;;;;;5029685;28;20103;-78
2023/06/25 07:25:09;;;;;;;394.35;374.20;;;31.70;90.40;;;;;;5020099;28;20116;-79
2023/06/25 07:27:35;;;;;;;333.55;316.92;;;31.80;90.00;;;;;;5022766;28;20057;-78
2023/06/25 07:30:03;;;;;;;560.58;527.15;;;31.80;90.00;;;;;;5062799;28;20045;-77
2023/06/25 07:32:29;;;;;;;439.92;415.90;;;32.00;90.00;;;;;;5023997;28;20060;-78
2023/06/25 07:34:56;;;;;;;311.15;296.30;;;32.10;89.50;;;;;;5041167;28;20380;-79
2023/06/25 07:37:21;;;;;;;406.10;385.02;;;32.10;85.50;;;;;;5038078;28;20054;-77
2023/06/25 07:39:47;;;;;;;292.88;277.95;;;32.20;85.20;;;;;;5041146;28;20382;-78
2023/06/25 07:42:12;;;;;;;428.52;405.60;;;32.40;84.30;;;;;;5046246;28;20041;-79
2023/06/25 07:44:38;;;;;;;311.52;295.77;;;32.40;84.40;;;;;;5047512;28;20045;-79
2023/06/25 07:47:04;;;;;;;184.18;175.73;;;32.30;83.60;;;;;;5038851;28;20476;-79
2023/06/25 07:49:30;;;;;;;177.02;168.85;;;32.40;82.30;;;;;;5047756;28;20049;-80
2023/06/25 07:51:56;;;;;;;245.00;233.32;;;32.40;82.40;;;;;;5030854;28;20109;-78
2023/06/25 07:54:22;;;;;;;136.25;129.93;;;32.20;82.20;;;;;;5070273;28;20049;-77
2023/06/25 07:56:48;;;;;;;266.02;253.77;;;32.20;81.20;;;;;;5027728;28;20069;-79
2023/06/25 07:59:15;;;;;;;166.82;159.40;;;32.00;82.70;;;;;;5030636;28;20090;-78
2023/06/25 08:01:41;;;;;;;184.30;175.77;;;32.20;82.60;;;;;;5046360;28;20060;-78
2023/06/25 08:04:06;;;;;;;147.35;140.48;;;32.50;80.40;;;;;;5064212;28;20444;-79
2023/06/25 08:06:33;;;;;;;117.10;111.57;;;32.40;80.00;;;;;;5038159;28;20041;-78
2023/06/25 08:08:58;;;;;;;131.75;125.60;;;32.40;79.40;;;;;;5045853;28;20493;-79
2023/06/25 08:11:24;;;;;;;145.88;139.05;;;32.70;80.20;;;;;;5077434;28;20059;-78
2023/06/25 08:13:50;;;;;;;207.35;197.82;;;33.00;79.30;;;;;;5037861;28;20053;-78
2023/06/25 08:16:15;;;;;;;256.23;244.43;;;33.10;77.60;;;;;;5035752;28;20730;-78
2023/06/25 08:18:41;;;;;;;167.45;159.75;;;33.00;75.60;;;;;;5039341;28;20175;-79
2023/06/25 08:21:07;;;;;;;172.07;163.98;;;32.80;77.30;;;;;;5042776;28;20158;-78
2023/06/25 08:23:33;;;;;;;311.50;296.88;;;32.80;76.50;;;;;;5032278;28;20045;-78
2023/06/25 08:25:58;;;;;;;128.23;122.38;;;32.90;76.80;;;;;;5028464;28;20123;-78
2023/06/25 08:28:24;;;;;;;119.47;114.13;;;33.00;76.50;;;;;;5038913;28;20397;-78
2023/06/25 08:30:50;;;;;;;90.00;85.75;;;33.00;75.80;;;;;;5045487;28;20049;-78
2023/06/25 08:33:16;;;;;;;90.88;86.57;;;33.10;76.10;;;;;;5017754;28;20045;-79
2023/06/25 08:35:41;;;;;;;34.58;32.45;;;33.20;76.00;;;;;;5029093;28;20037;-78
2023/06/25 08:38:08;;;;;;;37.00;34.85;;;33.40;74.40;;;;;;5028212;28;20068;-78
2023/06/25 08:40:35;;;;;;;37.65;35.55;;;33.50;72.20;;;;;;5041669;28;20080;-79
2023/06/25 08:43:01;;;;;;;62.30;59.20;;;33.40;73.60;;;;;;5023919;28;20124;-79
2023/06/25 08:45:28;;;;;;;38.00;35.95;;;33.40;71.00;;;;;;5038447;28;20044;-79
2023/06/25 08:47:55;;;;;;;22.63;21.13;;;33.40;72.30;;;;;;5040045;28;20502;-79
2023/06/25 08:50:21;;;;;;;71.25;67.70;;;33.50;72.20;;;;;;5041027;28;20055;-78
2023/06/25 08:52:47;;;;;;;25.08;23.38;;;33.60;70.20;;;;;;5032803;28;20405;-80
2023/06/25 08:55:14;;;;;;;29.10;27.33;;;33.80;70.80;;;;;;5040689;28;20080;-79
2023/06/25 08:57:40;;;;;;;28.50;26.60;;;33.80;71.50;;;;;;5035928;28;20045;-80
2023/06/25 09:00:07;;;;;;;64.03;60.75;;;33.90;70.20;;;;;;5043957;28;20033;-78
2023/06/25 09:02:33;;;;;;;77.03;73.35;;;33.80;69.30;;;;;;5027884;28;20041;-79
2023/06/25 09:05:07;;;;;;;96.03;91.63;;;33.80;68.60;;;;;;5045325;28;20596;-79
2023/06/25 09:07:35;;;;;;;101.10;96.47;;;33.80;68.20;;;;;;5045139;28;20045;-79
2023/06/25 09:10:01;;;;;;;100.45;95.95;;;33.70;67.30;;;;;;5033127;28;20071;-79
2023/06/25 09:12:27;;;;;;;91.10;86.85;;;33.70;67.00;;;;;;5018670;28;20049;-78
2023/06/25 09:14:55;;;;;;;83.07;79.05;;;33.70;67.00;;;;;;5027797;28;20033;-79
2023/06/25 09:17:21;;;;;;;34.13;32.20;;;33.60;66.50;;;;;;5054375;28;20053;-80
2023/06/25 09:19:47;;;;;;;103.70;98.90;;;33.70;68.20;;;;;;5027943;28;20477;-79
2023/06/25 09:22:13;;;;;;;113.28;108.15;;;33.70;67.10;;;;;;5027018;28;20044;-78
2023/06/25 09:24:47;;;;;;;138.73;132.45;;;33.60;65.20;;;;;;5048312;28;20091;-77
2023/06/25 09:27:13;;;;;;;121.72;116.05;;;33.60;62.20;;;;;;5035571;28;20132;-78
2023/06/25 09:29:39;;;;;;;96.45;91.85;;;33.40;63.30;;;;;;5025218;28;20132;-79
2023/06/25 09:32:10;;;;;;;74.90;71.20;;;33.30;63.60;;;;;;5041195;28;20398;-79
2023/06/25 09:34:39;;;;;;;75.82;72.25;;;33.30;64.10;;;;;;5027471;28;20383;-80
2023/06/25 09:37:05;;;;;;;69.45;66.22;;;33.30;65.00;;;;;;5066705;28;20037;-80
2023/06/25 09:39:31;;;;;;;55.17;52.22;;;33.40;64.10;;;;;;5042927;28;20114;-78
2023/06/25 09:42:00;;;;;;;56.45;53.60;;;33.40;64.90;;;;;;5045022;28;20051;-78
2023/06/25 09:44:27;;;;;;;35.30;33.42;;;33.40;64.60;;;;;;5028329;28;20041;-78
2023/06/25 09:47:00;;;;;;;73.50;70.00;;;33.50;66.50;;;;;;5057220;28;20045;-79
2023/06/25 09:49:32;;;;;;;71.90;68.57;;;33.60;63.40;;;;;;5037226;28;20071;-79
2023/06/25 09:52:12;;;;;;;104.38;99.53;;;33.60;64.40;;;;;;5044693;28;20143;-78
2023/06/25 09:54:40;;;;;;;152.63;145.73;;;33.60;62.20;;;;;;5028725;28;20049;-79
2023/06/25 09:57:09;;;;;;;89.60;85.50;;;33.60;61.40;;;;;;5071425;28;20049;-79
2023/06/25 09:59:38;;;;;;;101.72;97.07;;;33.30;63.00;;;;;;5043660;28;20096;-78
2023/06/25 10:02:06;;;;;;;93.78;89.55;;;33.10;62.90;;;;;;5043165;28;20037;-79
2023/06/25 10:04:33;;;;;;;94.18;89.88;;;33.10;63.70;;;;;;5027648;28;20057;-79
2023/06/25 10:07:00;;;;;;;77.22;73.53;;;33.10;62.80;;;;;;5029604;28;20198;-79
2023/06/25 10:09:26;;;;;;;54.90;52.17;;;33.10;64.20;;;;;;5043197;28;20518;-78
2023/06/25 10:11:56;;;;;;;150.10;143.38;;;33.10;64.70;;;;;;5028803;28;20131;-80
2023/06/25 10:14:23;;;;;;;99.90;95.20;;;33.10;61.50;;;;;;5040530;28;20508;-80
2023/06/25 10:16:56;;;;;;;88.88;84.82;;;32.90;61.90;;;;;;5037791;28;20077;-80
2023/06/25 10:19:27;;;;;;;122.47;116.88;;;32.80;63.00;;;;;;5023291;28;20452;-78
2023/06/25 10:22:03;;;;;;;78.63;74.90;;;32.80;61.50;;;;;;5042677;28;20064;-78
2023/06/25 10:24:46;;;;;;;82.25;78.35;;;32.80;63.60;;;;;;5027852;28;20049;-80
2023/06/25 10:27:30;;;;;;;73.20;69.70;;;32.80;63.90;;;;;;5033608;28;20374;-78
2023/06/25 10:29:57;;;;;;;155.40;148.23;;;32.80;63.40;;;;;;5044260;28;20053;-79
2023/06/25 10:32:28;;;;;;;161.20;154.07;;;32.70;60.50;;;;;;5042572;28;20080;-79
2023/06/25 10:35:02;;;;;;;68.38;65.18;;;32.60;61.20;;;;;;5045019;28;20449;-79
2023/06/25 10:37:32;;;;;;;75.07;71.47;;;32.50;62.90;;;;;;5045704;28;20049;-80
2023/06/25 10:40:04;;;;;;;63.08;60.13;;;32.50;64.10;;;;;;5044903;28;20040;-79
2023/06/25 10:42:31;;;;;;;115.30;110.00;;;32.60;62.80;;;;;;5054382;28;20087;-79
2023/06/25 10:44:57;;;;;;;87.50;83.38;;;32.70;61.10;;;;;;5029999;28;20069;-78
2023/06/25 10:47:23;;;;;;;98.65;94.25;;;32.60;63.60;;;;;;5044906;28;20067;-78
2023/06/25 10:49:48;;;;;;;63.03;59.97;;;32.60;62.80;;;;;;5031044;28;20044;-79
2023/06/25 10:52:14;;;;;;;63.38;60.05;;;32.80;62.80;;;;;;5046376;28;20041;-78
2023/06/25 10:54:40;;;;;;;92.47;88.32;;;32.80;63.10;;;;;;5049138;28;20059;-78
2023/06/25 10:57:06;;;;;;;90.43;86.35;;;33.10;64.50;;;;;;5028648;28;20068;-78
2023/06/25 10:59:32;;;;;;;74.07;70.68;;;33.20;61.10;;;;;;5029238;28;20056;-77
2023/06/25 11:02:14;;;;;;;106.40;101.70;;;33.30;63.00;;;;;;5024668;28;20037;-78
2023/06/25 11:04:40;;;;;;;144.20;137.75;;;33.40;62.20;;;;;;5038804;28;20048;-78
2023/06/25 11:07:06;;;;;;;75.45;71.82;;;33.60;60.60;;;;;;5047784;28;20053;-78
2023/06/25 11:09:32;;;;;;;74.97;71.63;;;33.50;61.70;;;;;;5026898;28;20519;-78
2023/06/25 11:11:58;;;;;;;155.68;148.82;;;33.60;61.60;;;;;;5036618;28;20060;-77
2023/06/25 11:14:24;;;;;;;183.38;175.20;;;33.70;60.50;;;;;;5045818;28;20057;-78
2023/06/25 11:16:50;;;;;;;65.65;62.40;;;33.80;59.80;;;;;;5053610;28;20056;-78
2023/06/25 11:19:16;;;;;;;154.43;147.50;;;33.80;57.90;;;;;;5026654;28;20049;-78
2023/06/25 11:21:41;;;;;;;170.50;162.77;;;33.60;57.80;;;;;;5060501;28;20038;-78
2023/06/25 11:24:08;;;;;;;134.20;128.27;;;33.40;58.00;;;;;;5050494;28;20040;-79
2023/06/25 11:26:44;;;;;;;107.22;102.30;;;33.30;57.90;;;;;;5077441;28;20048;-78
2023/06/25 11:29:11;;;;;;;137.02;130.65;;;33.40;58.50;;;;;;5054274;28;20057;-79
2023/06/25 11:31:44;;;;;;;138.40;132.35;;;33.30;56.80;;;;;;5043429;28;20049;-80
2023/06/25 11:34:20;;;;;;;63.10;60.22;;;33.10;56.80;;;;;;5048839;28;20052;-78
2023/06/25 11:36:47;;;;;;;201.27;192.45;;;33.10;60.20;;;;;;5039006;28;20045;-79
2023/06/25 11:39:13;;;;;;;225.55;215.50;;;33.30;58.60;;;;;;5046340;28;20045;-78
2023/06/25 11:41:38;;;;;;;163.73;156.43;;;33.50;58.30;;;;;;5044268;28;20352;-78
2023/06/25 11:44:18;;;;;;;26.75;24.88;;;33.50;56.60;;;;;;5053130;28;20033;-78
2023/06/25 11:46:46;;;;;;;160.00;152.80;;;33.30;55.20;;;;;;5035664;28;20452;-79
2023/06/25 11:49:12;;;;;;;96.65;92.18;;;33.20;57.60;;;;;;5047729;28;20393;-78
2023/06/25 11:51:38;;;;;;;109.80;104.50;;;33.20;56.40;;;;;;5046561;28;20098;-79
2023/06/25 11:54:04;;;;;;;198.50;189.65;;;33.20;58.50;;;;;;5041013;28;20475;-78
2023/06/25 11:56:29;;;;;;;63.75;60.55;;;33.30;57.70;;;;;;5046879;28;20084;-79
2023/06/25 11:58:55;;;;;;;28.80;27.23;;;33.40;56.60;;;;;;5040284;28;20061;-77
2023/06/25 12:01:21;;;;;;;28.55;27.00;;;33.40;55.10;;;;;;5024541;28;20478;-80
2023/06/25 12:03:46;;;;;;;40.65;38.53;;;33.40;54.10;;;;;;5027126;28;20045;-79
2023/06/25 12:06:12;;;;;;;116.90;111.68;;;33.30;53.60;;;;;;5029696;28;20045;-79
2023/06/25 12:08:38;;;;;;;20.17;18.92;;;33.30;55.60;;;;;;5063340;28;20041;-79
2023/06/25 12:11:03;;;;;;;74.60;71.18;;;33.50;59.10;;;;;;5046290;28;20056;-80